sensor_id;sensor_type;location;lat;lon;timestamp;P1;durP1;ratioP1;P2;durP2;ratioP2
39554;SDS011;25231;48.746;9.234;2022-07-25T00:01:53;287.13;;;270.90;;
39554;SDS011;25231;48.746;9.234;2022-07-25T00:04:19;258.25;;;243.60;;
39554;SDS011;25231;48.746;9.234;2022-07-25T00:06:45;344.20;;;323.88;;
39554;SDS011;25231;48.746;9.234;2022-07-25T00:09:10;381.27;;;359.10;;
39554;SDS011;25231;48.746;9.234;2022-07-25T00:11:36;405.92;;;382.00;;
39554;SDS011;25231;48.746;9.234;2022-07-25T00:14:01;401.42;;;377.75;;
39554;SDS011;25231;48.746;9.234;2022-07-25T00:16:28;289.02;;;272.75;;
39554;SDS011;25231;48.746;9.234;2022-07-25T00:18:53;161.68;;;152.57;;
39554;SDS011;25231;48.746;9.234;2022-07-25T00:21:19;160.70;;;151.75;;
39554;SDS011;25231;48.746;9.234;2022-07-25T00:23:44;257.30;;;243.02;;
39554;SDS011;25231;48.746;9.234;2022-07-25T00:26:10;220.00;;;207.30;;
39554;SDS011;25231;48.746;9.234;2022-07-25T00:28:35;125.47;;;118.28;;
39554;SDS011;25231;48.746;9.234;2022-07-25T00:31:00;100.43;;;94.70;;
39554;SDS011;25231;48.746;9.234;2022-07-25T00:33:26;93.00;;;87.78;;
39554;SDS011;25231;48.746;9.234;2022-07-25T00:35:51;102.53;;;96.82;;
39554;SDS011;25231;48.746;9.234;2022-07-25T00:38:16;101.78;;;95.97;;
39554;SDS011;25231;48.746;9.234;2022-07-25T00:40:42;103.80;;;97.97;;
39554;SDS011;25231;48.746;9.234;2022-07-25T00:43:07;113.07;;;106.75;;
39554;SDS011;25231;48.746;9.234;2022-07-25T00:45:33;117.20;;;110.70;;
39554;SDS011;25231;48.746;9.234;2022-07-25T00:47:58;159.93;;;151.27;;
39554;SDS011;25231;48.746;9.234;2022-07-25T00:50:24;213.68;;;202.95;;
39554;SDS011;25231;48.746;9.234;2022-07-25T00:52:49;226.73;;;215.35;;
39554;SDS011;25231;48.746;9.234;2022-07-25T00:55:15;249.15;;;236.77;;
39554;SDS011;25231;48.746;9.234;2022-07-25T00:57:41;224.82;;;213.73;;
39554;SDS011;25231;48.746;9.234;2022-07-25T01:00:08;244.52;;;232.45;;
39554;SDS011;25231;48.746;9.234;2022-07-25T01:02:36;238.40;;;226.57;;
39554;SDS011;25231;48.746;9.234;2022-07-25T01:05:02;227.15;;;215.90;;
39554;SDS011;25231;48.746;9.234;2022-07-25T01:07:28;231.40;;;219.98;;
39554;SDS011;25231;48.746;9.234;2022-07-25T01:09:54;206.80;;;196.52;;
39554;SDS011;25231;48.746;9.234;2022-07-25T01:12:21;182.93;;;173.57;;
39554;SDS011;25231;48.746;9.234;2022-07-25T01:14:46;177.45;;;168.07;;
39554;SDS011;25231;48.746;9.234;2022-07-25T01:17:11;225.63;;;214.32;;
39554;SDS011;25231;48.746;9.234;2022-07-25T01:19:37;269.33;;;256.30;;
39554;SDS011;25231;48.746;9.234;2022-07-25T01:22:03;325.90;;;309.95;;
39554;SDS011;25231;48.746;9.234;2022-07-25T01:24:28;307.75;;;292.35;;
39554;SDS011;25231;48.746;9.234;2022-07-25T01:26:54;314.25;;;298.73;;
39554;SDS011;25231;48.746;9.234;2022-07-25T01:29:19;286.10;;;272.10;;
39554;SDS011;25231;48.746;9.234;2022-07-25T01:31:45;288.42;;;274.02;;
39554;SDS011;25231;48.746;9.234;2022-07-25T01:34:10;279.50;;;265.77;;
39554;SDS011;25231;48.746;9.234;2022-07-25T01:36:36;298.55;;;283.98;;
39554;SDS011;25231;48.746;9.234;2022-07-25T01:39:01;280.58;;;266.75;;
39554;SDS011;25231;48.746;9.234;2022-07-25T01:41:27;226.70;;;215.63;;
39554;SDS011;25231;48.746;9.234;2022-07-25T01:43:52;159.65;;;151.35;;
39554;SDS011;25231;48.746;9.234;2022-07-25T01:46:17;118.53;;;111.95;;
39554;SDS011;25231;48.746;9.234;2022-07-25T01:48:43;79.05;;;74.53;;
39554;SDS011;25231;48.746;9.234;2022-07-25T01:51:08;84.78;;;80.00;;
39554;SDS011;25231;48.746;9.234;2022-07-25T01:53:37;81.68;;;77.15;;
39554;SDS011;25231;48.746;9.234;2022-07-25T01:56:03;91.97;;;86.70;;
39554;SDS011;25231;48.746;9.234;2022-07-25T01:58:32;88.82;;;83.82;;
39554;SDS011;25231;48.746;9.234;2022-07-25T02:00:57;103.10;;;97.45;;
39554;SDS011;25231;48.746;9.234;2022-07-25T02:03:23;137.40;;;129.73;;
39554;SDS011;25231;48.746;9.234;2022-07-25T02:05:54;144.27;;;136.40;;
39554;SDS011;25231;48.746;9.234;2022-07-25T02:08:20;159.57;;;150.90;;
39554;SDS011;25231;48.746;9.234;2022-07-25T02:10:46;142.45;;;134.52;;
39554;SDS011;25231;48.746;9.234;2022-07-25T02:13:11;141.93;;;134.02;;
39554;SDS011;25231;48.746;9.234;2022-07-25T02:15:37;136.60;;;128.80;;
39554;SDS011;25231;48.746;9.234;2022-07-25T02:18:02;196.65;;;186.07;;
39554;SDS011;25231;48.746;9.234;2022-07-25T02:20:28;289.83;;;273.75;;
39554;SDS011;25231;48.746;9.234;2022-07-25T02:22:53;438.73;;;413.35;;
39554;SDS011;25231;48.746;9.234;2022-07-25T02:25:18;461.80;;;434.63;;
39554;SDS011;25231;48.746;9.234;2022-07-25T02:27:44;270.55;;;254.85;;
39554;SDS011;25231;48.746;9.234;2022-07-25T02:30:09;186.57;;;175.82;;
39554;SDS011;25231;48.746;9.234;2022-07-25T02:32:35;184.75;;;174.38;;
39554;SDS011;25231;48.746;9.234;2022-07-25T02:35:00;241.60;;;227.68;;
39554;SDS011;25231;48.746;9.234;2022-07-25T02:37:26;270.42;;;255.40;;
39554;SDS011;25231;48.746;9.234;2022-07-25T02:39:51;328.25;;;310.17;;
39554;SDS011;25231;48.746;9.234;2022-07-25T02:42:16;538.22;;;506.45;;
39554;SDS011;25231;48.746;9.234;2022-07-25T02:44:42;617.55;;;578.80;;
39554;SDS011;25231;48.746;9.234;2022-07-25T02:47:07;565.67;;;530.65;;
39554;SDS011;25231;48.746;9.234;2022-07-25T02:49:32;565.08;;;530.58;;
39554;SDS011;25231;48.746;9.234;2022-07-25T02:51:58;609.15;;;571.63;;
39554;SDS011;25231;48.746;9.234;2022-07-25T02:54:23;688.78;;;644.58;;
39554;SDS011;25231;48.746;9.234;2022-07-25T02:56:49;710.85;;;664.60;;
39554;SDS011;25231;48.746;9.234;2022-07-25T02:59:14;716.83;;;669.70;;
39554;SDS011;25231;48.746;9.234;2022-07-25T03:01:39;729.38;;;681.20;;
39554;SDS011;25231;48.746;9.234;2022-07-25T03:04:05;743.20;;;693.95;;
39554;SDS011;25231;48.746;9.234;2022-07-25T03:06:30;754.30;;;704.13;;
39554;SDS011;25231;48.746;9.234;2022-07-25T03:08:55;724.40;;;676.92;;
39554;SDS011;25231;48.746;9.234;2022-07-25T03:11:21;707.55;;;661.00;;
39554;SDS011;25231;48.746;9.234;2022-07-25T03:13:46;677.00;;;634.15;;
39554;SDS011;25231;48.746;9.234;2022-07-25T03:16:12;639.22;;;599.25;;
39554;SDS011;25231;48.746;9.234;2022-07-25T03:18:37;676.97;;;633.15;;
39554;SDS011;25231;48.746;9.234;2022-07-25T03:21:02;733.90;;;684.45;;
39554;SDS011;25231;48.746;9.234;2022-07-25T03:23:28;743.13;;;692.88;;
39554;SDS011;25231;48.746;9.234;2022-07-25T03:25:55;671.33;;;627.97;;
39554;SDS011;25231;48.746;9.234;2022-07-25T03:28:21;579.13;;;542.90;;
39554;SDS011;25231;48.746;9.234;2022-07-25T03:30:46;525.95;;;494.20;;
39554;SDS011;25231;48.746;9.234;2022-07-25T03:33:11;496.02;;;466.15;;
39554;SDS011;25231;48.746;9.234;2022-07-25T03:35:37;473.98;;;445.92;;
39554;SDS011;25231;48.746;9.234;2022-07-25T03:38:02;452.48;;;425.98;;
39554;SDS011;25231;48.746;9.234;2022-07-25T03:40:27;437.10;;;411.73;;
39554;SDS011;25231;48.746;9.234;2022-07-25T03:42:53;404.08;;;380.80;;
39554;SDS011;25231;48.746;9.234;2022-07-25T03:45:18;427.65;;;402.92;;
39554;SDS011;25231;48.746;9.234;2022-07-25T03:47:44;416.25;;;392.45;;
39554;SDS011;25231;48.746;9.234;2022-07-25T03:50:09;424.05;;;399.45;;
39554;SDS011;25231;48.746;9.234;2022-07-25T03:52:35;426.58;;;401.88;;
39554;SDS011;25231;48.746;9.234;2022-07-25T03:55:02;419.17;;;395.05;;
39554;SDS011;25231;48.746;9.234;2022-07-25T03:57:29;425.02;;;400.67;;
39554;SDS011;25231;48.746;9.234;2022-07-25T03:59:55;434.30;;;409.23;;
39554;SDS011;25231;48.746;9.234;2022-07-25T04:02:20;482.45;;;454.67;;
39554;SDS011;25231;48.746;9.234;2022-07-25T04:04:45;461.70;;;434.92;;
39554;SDS011;25231;48.746;9.234;2022-07-25T04:07:11;393.98;;;371.98;;
39554;SDS011;25231;48.746;9.234;2022-07-25T04:09:36;282.33;;;266.77;;
39554;SDS011;25231;48.746;9.234;2022-07-25T04:12:01;215.07;;;203.00;;
39554;SDS011;25231;48.746;9.234;2022-07-25T04:14:27;151.15;;;142.63;;
39554;SDS011;25231;48.746;9.234;2022-07-25T04:16:52;120.20;;;113.50;;
39554;SDS011;25231;48.746;9.234;2022-07-25T04:19:18;166.40;;;157.25;;
39554;SDS011;25231;48.746;9.234;2022-07-25T04:21:43;237.77;;;224.70;;
39554;SDS011;25231;48.746;9.234;2022-07-25T04:24:08;280.05;;;264.55;;
39554;SDS011;25231;48.746;9.234;2022-07-25T04:26:34;214.65;;;202.98;;
39554;SDS011;25231;48.746;9.234;2022-07-25T04:28:59;152.20;;;143.98;;
39554;SDS011;25231;48.746;9.234;2022-07-25T04:31:27;140.05;;;132.30;;
39554;SDS011;25231;48.746;9.234;2022-07-25T04:33:52;107.25;;;101.13;;
39554;SDS011;25231;48.746;9.234;2022-07-25T04:36:18;80.32;;;75.65;;
39554;SDS011;25231;48.746;9.234;2022-07-25T04:38:43;72.57;;;68.47;;
39554;SDS011;25231;48.746;9.234;2022-07-25T04:41:09;82.72;;;78.10;;
39554;SDS011;25231;48.746;9.234;2022-07-25T04:43:34;112.80;;;105.85;;
39554;SDS011;25231;48.746;9.234;2022-07-25T04:46:00;122.40;;;115.70;;
39554;SDS011;25231;48.746;9.234;2022-07-25T04:48:25;119.80;;;113.45;;
39554;SDS011;25231;48.746;9.234;2022-07-25T04:50:51;110.03;;;104.05;;
39554;SDS011;25231;48.746;9.234;2022-07-25T04:53:16;104.63;;;98.93;;
39554;SDS011;25231;48.746;9.234;2022-07-25T04:55:42;87.95;;;83.03;;
39554;SDS011;25231;48.746;9.234;2022-07-25T04:58:07;59.40;;;55.75;;
39554;SDS011;25231;48.746;9.234;2022-07-25T05:00:32;67.25;;;63.30;;
39554;SDS011;25231;48.746;9.234;2022-07-25T05:02:58;60.72;;;57.03;;
39554;SDS011;25231;48.746;9.234;2022-07-25T05:05:23;138.77;;;131.43;;
39554;SDS011;25231;48.746;9.234;2022-07-25T05:07:49;148.55;;;140.25;;
39554;SDS011;25231;48.746;9.234;2022-07-25T05:10:19;123.38;;;116.82;;
39554;SDS011;25231;48.746;9.234;2022-07-25T05:12:44;88.57;;;83.20;;
39554;SDS011;25231;48.746;9.234;2022-07-25T05:15:10;57.22;;;53.90;;
39554;SDS011;25231;48.746;9.234;2022-07-25T05:17:36;99.43;;;93.78;;
39554;SDS011;25231;48.746;9.234;2022-07-25T05:20:01;308.42;;;291.13;;
39554;SDS011;25231;48.746;9.234;2022-07-25T05:22:27;479.60;;;450.83;;
39554;SDS011;25231;48.746;9.234;2022-07-25T05:24:53;417.10;;;393.05;;
39554;SDS011;25231;48.746;9.234;2022-07-25T05:27:18;433.92;;;409.45;;
39554;SDS011;25231;48.746;9.234;2022-07-25T05:29:44;669.80;;;624.83;;
39554;SDS011;25231;48.746;9.234;2022-07-25T05:32:09;809.22;;;751.30;;
39554;SDS011;25231;48.746;9.234;2022-07-25T05:34:34;789.17;;;735.28;;
39554;SDS011;25231;48.746;9.234;2022-07-25T05:37:00;640.63;;;598.35;;
39554;SDS011;25231;48.746;9.234;2022-07-25T05:39:25;621.70;;;580.20;;
39554;SDS011;25231;48.746;9.234;2022-07-25T05:41:50;554.97;;;519.05;;
39554;SDS011;25231;48.746;9.234;2022-07-25T05:44:16;527.05;;;494.40;;
39554;SDS011;25231;48.746;9.234;2022-07-25T05:46:41;564.55;;;531.20;;
39554;SDS011;25231;48.746;9.234;2022-07-25T05:49:06;565.17;;;533.22;;
39554;SDS011;25231;48.746;9.234;2022-07-25T05:51:32;499.48;;;472.05;;
39554;SDS011;25231;48.746;9.234;2022-07-25T05:53:57;424.73;;;401.58;;
39554;SDS011;25231;48.746;9.234;2022-07-25T05:56:22;416.27;;;393.85;;
39554;SDS011;25231;48.746;9.234;2022-07-25T05:58:48;344.20;;;325.70;;
39554;SDS011;25231;48.746;9.234;2022-07-25T06:01:13;283.20;;;268.08;;
39554;SDS011;25231;48.746;9.234;2022-07-25T06:03:40;215.30;;;203.85;;
39554;SDS011;25231;48.746;9.234;2022-07-25T06:06:06;233.35;;;220.77;;
39554;SDS011;25231;48.746;9.234;2022-07-25T06:08:33;285.48;;;270.83;;
39554;SDS011;25231;48.746;9.234;2022-07-25T06:11:02;290.58;;;274.98;;
39554;SDS011;25231;48.746;9.234;2022-07-25T06:13:29;330.95;;;314.23;;
39554;SDS011;25231;48.746;9.234;2022-07-25T06:15:55;262.75;;;249.40;;
39554;SDS011;25231;48.746;9.234;2022-07-25T06:18:20;249.18;;;236.40;;
39554;SDS011;25231;48.746;9.234;2022-07-25T06:20:46;228.55;;;216.35;;
39554;SDS011;25231;48.746;9.234;2022-07-25T06:23:11;238.73;;;226.60;;
39554;SDS011;25231;48.746;9.234;2022-07-25T06:25:36;253.50;;;240.75;;
39554;SDS011;25231;48.746;9.234;2022-07-25T06:28:02;231.05;;;219.10;;
39554;SDS011;25231;48.746;9.234;2022-07-25T06:30:27;229.48;;;217.57;;
39554;SDS011;25231;48.746;9.234;2022-07-25T06:32:53;282.00;;;267.45;;
39554;SDS011;25231;48.746;9.234;2022-07-25T06:35:19;302.00;;;286.65;;
39554;SDS011;25231;48.746;9.234;2022-07-25T06:37:44;327.42;;;310.33;;
39554;SDS011;25231;48.746;9.234;2022-07-25T06:40:10;367.35;;;347.88;;
39554;SDS011;25231;48.746;9.234;2022-07-25T06:42:36;419.17;;;397.60;;
39554;SDS011;25231;48.746;9.234;2022-07-25T06:45:06;387.92;;;368.33;;
39554;SDS011;25231;48.746;9.234;2022-07-25T06:47:36;357.30;;;339.30;;
39554;SDS011;25231;48.746;9.234;2022-07-25T06:50:03;413.02;;;391.73;;
39554;SDS011;25231;48.746;9.234;2022-07-25T06:52:30;387.00;;;366.77;;
39554;SDS011;25231;48.746;9.234;2022-07-25T06:54:55;411.17;;;389.50;;
39554;SDS011;25231;48.746;9.234;2022-07-25T06:57:20;386.10;;;365.92;;
39554;SDS011;25231;48.746;9.234;2022-07-25T06:59:46;430.45;;;408.15;;
39554;SDS011;25231;48.746;9.234;2022-07-25T07:02:11;381.17;;;361.73;;
39554;SDS011;25231;48.746;9.234;2022-07-25T07:04:37;408.38;;;387.50;;
39554;SDS011;25231;48.746;9.234;2022-07-25T07:07:03;430.23;;;407.98;;
39554;SDS011;25231;48.746;9.234;2022-07-25T07:09:28;443.23;;;420.20;;
39554;SDS011;25231;48.746;9.234;2022-07-25T07:11:53;439.85;;;416.85;;
39554;SDS011;25231;48.746;9.234;2022-07-25T07:14:19;308.42;;;291.58;;
39554;SDS011;25231;48.746;9.234;2022-07-25T07:16:44;392.65;;;371.17;;
39554;SDS011;25231;48.746;9.234;2022-07-25T07:19:09;469.48;;;442.88;;
39554;SDS011;25231;48.746;9.234;2022-07-25T07:21:35;472.45;;;445.48;;
39554;SDS011;25231;48.746;9.234;2022-07-25T07:24:01;444.98;;;420.13;;
39554;SDS011;25231;48.746;9.234;2022-07-25T07:26:26;406.40;;;383.98;;
39554;SDS011;25231;48.746;9.234;2022-07-25T07:28:52;389.92;;;369.08;;
39554;SDS011;25231;48.746;9.234;2022-07-25T07:31:19;394.23;;;373.83;;
39554;SDS011;25231;48.746;9.234;2022-07-25T07:33:44;306.77;;;290.95;;
39554;SDS011;25231;48.746;9.234;2022-07-25T07:36:10;257.13;;;243.82;;
39554;SDS011;25231;48.746;9.234;2022-07-25T07:38:35;259.30;;;245.93;;
39554;SDS011;25231;48.746;9.234;2022-07-25T07:41:00;266.35;;;252.68;;
39554;SDS011;25231;48.746;9.234;2022-07-25T07:43:26;214.18;;;203.05;;
39554;SDS011;25231;48.746;9.234;2022-07-25T07:45:51;199.27;;;188.85;;
39554;SDS011;25231;48.746;9.234;2022-07-25T07:48:16;202.70;;;192.27;;
39554;SDS011;25231;48.746;9.234;2022-07-25T07:50:42;322.73;;;306.05;;
39554;SDS011;25231;48.746;9.234;2022-07-25T07:53:07;336.55;;;318.90;;
39554;SDS011;25231;48.746;9.234;2022-07-25T07:55:33;309.38;;;293.30;;
39554;SDS011;25231;48.746;9.234;2022-07-25T07:58:13;281.92;;;267.00;;
39554;SDS011;25231;48.746;9.234;2022-07-25T08:00:41;468.00;;;441.17;;
39554;SDS011;25231;48.746;9.234;2022-07-25T08:03:08;552.05;;;518.67;;
39554;SDS011;25231;48.746;9.234;2022-07-25T08:05:38;659.00;;;615.20;;
39554;SDS011;25231;48.746;9.234;2022-07-25T08:08:06;750.28;;;704.05;;
39554;SDS011;25231;48.746;9.234;2022-07-25T08:10:34;769.85;;;721.80;;
39554;SDS011;25231;48.746;9.234;2022-07-25T08:13:02;739.65;;;693.63;;
39554;SDS011;25231;48.746;9.234;2022-07-25T08:15:37;764.63;;;716.97;;
39554;SDS011;25231;48.746;9.234;2022-07-25T08:18:02;754.60;;;707.28;;
39554;SDS011;25231;48.746;9.234;2022-07-25T08:20:28;783.25;;;735.15;;
39554;SDS011;25231;48.746;9.234;2022-07-25T08:22:54;812.63;;;763.08;;
39554;SDS011;25231;48.746;9.234;2022-07-25T08:25:19;787.50;;;739.30;;
39554;SDS011;25231;48.746;9.234;2022-07-25T08:27:46;715.25;;;674.08;;
39554;SDS011;25231;48.746;9.234;2022-07-25T08:30:12;649.25;;;611.95;;
39554;SDS011;25231;48.746;9.234;2022-07-25T08:32:45;662.22;;;623.75;;
39554;SDS011;25231;48.746;9.234;2022-07-25T08:35:15;609.75;;;574.65;;
39554;SDS011;25231;48.746;9.234;2022-07-25T08:37:41;531.63;;;501.58;;
39554;SDS011;25231;48.746;9.234;2022-07-25T08:40:07;478.30;;;451.58;;
39554;SDS011;25231;48.746;9.234;2022-07-25T08:42:34;499.92;;;471.98;;
39554;SDS011;25231;48.746;9.234;2022-07-25T08:45:03;440.85;;;416.27;;
39554;SDS011;25231;48.746;9.234;2022-07-25T08:47:31;385.15;;;364.48;;
39554;SDS011;25231;48.746;9.234;2022-07-25T08:49:56;340.30;;;322.35;;
39554;SDS011;25231;48.746;9.234;2022-07-25T08:52:22;346.60;;;328.40;;
39554;SDS011;25231;48.746;9.234;2022-07-25T08:54:48;334.08;;;316.65;;
39554;SDS011;25231;48.746;9.234;2022-07-25T08:57:15;339.02;;;321.25;;
39554;SDS011;25231;48.746;9.234;2022-07-25T08:59:41;279.77;;;265.30;;
39554;SDS011;25231;48.746;9.234;2022-07-25T09:02:11;251.90;;;238.95;;
39554;SDS011;25231;48.746;9.234;2022-07-25T09:04:37;126.03;;;119.30;;
39554;SDS011;25231;48.746;9.234;2022-07-25T09:07:03;97.43;;;92.25;;
39554;SDS011;25231;48.746;9.234;2022-07-25T09:09:29;175.77;;;167.00;;
39554;SDS011;25231;48.746;9.234;2022-07-25T09:11:56;233.27;;;221.35;;
39554;SDS011;25231;48.746;9.234;2022-07-25T09:14:22;308.88;;;292.60;;
39554;SDS011;25231;48.746;9.234;2022-07-25T09:16:48;171.32;;;162.38;;
39554;SDS011;25231;48.746;9.234;2022-07-25T09:21:43;81.13;;;76.70;;
39554;SDS011;25231;48.746;9.234;2022-07-25T09:24:17;94.00;;;88.75;;
39554;SDS011;25231;48.746;9.234;2022-07-25T09:26:50;50.38;;;47.50;;
39554;SDS011;25231;48.746;9.234;2022-07-25T09:29:18;54.10;;;50.88;;
39554;SDS011;25231;48.746;9.234;2022-07-25T09:31:46;39.45;;;37.20;;
39554;SDS011;25231;48.746;9.234;2022-07-25T09:34:15;50.80;;;47.90;;
39554;SDS011;25231;48.746;9.234;2022-07-25T09:37:04;52.83;;;49.72;;
39554;SDS011;25231;48.746;9.234;2022-07-25T09:39:42;66.47;;;62.72;;
39554;SDS011;25231;48.746;9.234;2022-07-25T09:45:10;54.65;;;51.58;;
39554;SDS011;25231;48.746;9.234;2022-07-25T09:47:49;55.40;;;52.33;;
39554;SDS011;25231;48.746;9.234;2022-07-25T09:50:19;55.13;;;51.97;;
39554;SDS011;25231;48.746;9.234;2022-07-25T09:52:47;54.55;;;51.25;;
39554;SDS011;25231;48.746;9.234;2022-07-25T09:55:15;54.67;;;51.63;;
39554;SDS011;25231;48.746;9.234;2022-07-25T09:57:40;59.67;;;56.25;;
39554;SDS011;25231;48.746;9.234;2022-07-25T10:00:06;61.40;;;58.00;;
39554;SDS011;25231;48.746;9.234;2022-07-25T10:07:57;54.83;;;51.72;;
39554;SDS011;25231;48.746;9.234;2022-07-25T10:10:26;50.45;;;47.50;;
39554;SDS011;25231;48.746;9.234;2022-07-25T10:12:58;51.92;;;49.03;;
39554;SDS011;25231;48.746;9.234;2022-07-25T10:15:25;54.28;;;51.15;;
39554;SDS011;25231;48.746;9.234;2022-07-25T10:17:50;67.65;;;63.83;;
39554;SDS011;25231;48.746;9.234;2022-07-25T10:20:27;69.35;;;65.53;;
39554;SDS011;25231;48.746;9.234;2022-07-25T10:22:53;73.13;;;69.05;;
39554;SDS011;25231;48.746;9.234;2022-07-25T10:25:19;78.90;;;74.40;;
39554;SDS011;25231;48.746;9.234;2022-07-25T10:27:46;77.85;;;73.60;;
39554;SDS011;25231;48.746;9.234;2022-07-25T10:30:21;85.93;;;80.60;;
39554;SDS011;25231;48.746;9.234;2022-07-25T10:32:58;82.63;;;77.75;;
39554;SDS011;25231;48.746;9.234;2022-07-25T10:35:26;92.40;;;87.15;;
39554;SDS011;25231;48.746;9.234;2022-07-25T10:37:53;90.15;;;85.15;;
39554;SDS011;25231;48.746;9.234;2022-07-25T10:40:27;98.80;;;93.47;;
39554;SDS011;25231;48.746;9.234;2022-07-25T10:43:01;103.55;;;98.05;;
39554;SDS011;25231;48.746;9.234;2022-07-25T10:45:35;110.05;;;104.18;;
39554;SDS011;25231;48.746;9.234;2022-07-25T10:48:07;119.00;;;112.70;;
39554;SDS011;25231;48.746;9.234;2022-07-25T10:50:44;120.50;;;113.55;;
39554;SDS011;25231;48.746;9.234;2022-07-25T10:53:10;122.72;;;116.18;;
39554;SDS011;25231;48.746;9.234;2022-07-25T10:55:36;123.43;;;116.72;;
39554;SDS011;25231;48.746;9.234;2022-07-25T10:58:02;121.32;;;114.82;;
39554;SDS011;25231;48.746;9.234;2022-07-25T11:00:30;117.75;;;111.53;;
39554;SDS011;25231;48.746;9.234;2022-07-25T11:02:57;109.35;;;103.40;;
39554;SDS011;25231;48.746;9.234;2022-07-25T11:05:22;128.40;;;121.57;;
39554;SDS011;25231;48.746;9.234;2022-07-25T11:07:48;113.28;;;107.13;;
39554;SDS011;25231;48.746;9.234;2022-07-25T11:10:24;107.72;;;101.93;;
39554;SDS011;25231;48.746;9.234;2022-07-25T11:12:50;120.82;;;114.28;;
39554;SDS011;25231;48.746;9.234;2022-07-25T11:15:20;123.00;;;116.47;;
39554;SDS011;25231;48.746;9.234;2022-07-25T11:17:50;129.40;;;122.63;;
39554;SDS011;25231;48.746;9.234;2022-07-25T11:20:17;116.85;;;110.22;;
39554;SDS011;25231;48.746;9.234;2022-07-25T11:22:52;118.93;;;112.57;;
39554;SDS011;25231;48.746;9.234;2022-07-25T11:25:19;114.95;;;108.72;;
39554;SDS011;25231;48.746;9.234;2022-07-25T11:27:56;92.03;;;86.95;;
39554;SDS011;25231;48.746;9.234;2022-07-25T11:30:24;87.38;;;82.60;;
39554;SDS011;25231;48.746;9.234;2022-07-25T11:32:54;86.70;;;81.95;;
39554;SDS011;25231;48.746;9.234;2022-07-25T11:35:24;90.82;;;85.80;;
39554;SDS011;25231;48.746;9.234;2022-07-25T11:37:52;89.68;;;84.50;;
39554;SDS011;25231;48.746;9.234;2022-07-25T11:40:19;94.72;;;89.47;;
39554;SDS011;25231;48.746;9.234;2022-07-25T11:42:47;96.05;;;90.38;;
39554;SDS011;25231;48.746;9.234;2022-07-25T11:45:17;96.85;;;91.25;;
39554;SDS011;25231;48.746;9.234;2022-07-25T11:48:10;151.18;;;143.20;;
39554;SDS011;25231;48.746;9.234;2022-07-25T11:50:39;303.92;;;287.52;;
39554;SDS011;25231;48.746;9.234;2022-07-25T11:53:08;340.02;;;321.98;;
39554;SDS011;25231;48.746;9.234;2022-07-25T11:55:37;404.33;;;382.33;;
39554;SDS011;25231;48.746;9.234;2022-07-25T11:58:05;386.83;;;365.90;;
39554;SDS011;25231;48.746;9.234;2022-07-25T12:00:34;441.83;;;417.55;;
39554;SDS011;25231;48.746;9.234;2022-07-25T12:03:07;359.45;;;340.27;;
39554;SDS011;25231;48.746;9.234;2022-07-25T12:05:34;400.50;;;378.80;;
39554;SDS011;25231;48.746;9.234;2022-07-25T12:08:07;432.05;;;408.50;;
39554;SDS011;25231;48.746;9.234;2022-07-25T12:10:33;424.92;;;401.70;;
39554;SDS011;25231;48.746;9.234;2022-07-25T12:13:00;402.98;;;381.17;;
39554;SDS011;25231;48.746;9.234;2022-07-25T12:15:29;387.17;;;366.10;;
39554;SDS011;25231;48.746;9.234;2022-07-25T12:17:56;302.05;;;286.17;;
39554;SDS011;25231;48.746;9.234;2022-07-25T12:20:23;187.32;;;177.80;;
39554;SDS011;25231;48.746;9.234;2022-07-25T12:22:54;224.63;;;213.40;;
39554;SDS011;25231;48.746;9.234;2022-07-25T12:25:21;114.70;;;108.68;;
39554;SDS011;25231;48.746;9.234;2022-07-25T12:27:47;54.83;;;51.88;;
39554;SDS011;25231;48.746;9.234;2022-07-25T12:30:14;17.25;;;15.93;;
39554;SDS011;25231;48.746;9.234;2022-07-25T12:32:40;19.10;;;18.00;;
39554;SDS011;25231;48.746;9.234;2022-07-25T12:35:07;24.60;;;23.20;;
39554;SDS011;25231;48.746;9.234;2022-07-25T12:37:33;16.25;;;15.32;;
39554;SDS011;25231;48.746;9.234;2022-07-25T12:39:59;15.80;;;14.93;;
39554;SDS011;25231;48.746;9.234;2022-07-25T12:42:24;23.00;;;21.67;;
39554;SDS011;25231;48.746;9.234;2022-07-25T12:44:52;25.85;;;24.25;;
39554;SDS011;25231;48.746;9.234;2022-07-25T12:47:19;19.25;;;18.05;;
39554;SDS011;25231;48.746;9.234;2022-07-25T12:49:44;40.40;;;38.00;;
39554;SDS011;25231;48.746;9.234;2022-07-25T12:52:10;265.25;;;251.52;;
39554;SDS011;25231;48.746;9.234;2022-07-25T12:54:35;304.92;;;288.92;;
39554;SDS011;25231;48.746;9.234;2022-07-25T12:57:01;335.20;;;317.15;;
39554;SDS011;25231;48.746;9.234;2022-07-25T12:59:26;316.48;;;299.73;;
39554;SDS011;25231;48.746;9.234;2022-07-25T13:01:51;276.02;;;261.65;;
39554;SDS011;25231;48.746;9.234;2022-07-25T13:04:17;263.27;;;249.57;;
39554;SDS011;25231;48.746;9.234;2022-07-25T13:06:42;301.65;;;285.55;;
39554;SDS011;25231;48.746;9.234;2022-07-25T13:09:08;282.52;;;267.40;;
39554;SDS011;25231;48.746;9.234;2022-07-25T13:11:33;257.55;;;244.05;;
39554;SDS011;25231;48.746;9.234;2022-07-25T13:13:59;301.55;;;285.55;;
39554;SDS011;25231;48.746;9.234;2022-07-25T13:16:24;306.38;;;290.20;;
39554;SDS011;25231;48.746;9.234;2022-07-25T13:18:50;264.13;;;250.20;;
39554;SDS011;25231;48.746;9.234;2022-07-25T13:21:16;255.43;;;242.23;;
39554;SDS011;25231;48.746;9.234;2022-07-25T13:23:42;314.75;;;297.85;;
39554;SDS011;25231;48.746;9.234;2022-07-25T13:26:08;345.88;;;327.27;;
39554;SDS011;25231;48.746;9.234;2022-07-25T13:28:33;292.77;;;277.58;;
39554;SDS011;25231;48.746;9.234;2022-07-25T13:30:58;338.48;;;320.50;;
39554;SDS011;25231;48.746;9.234;2022-07-25T13:33:25;326.17;;;309.15;;
39554;SDS011;25231;48.746;9.234;2022-07-25T13:35:51;348.50;;;330.13;;
39554;SDS011;25231;48.746;9.234;2022-07-25T13:38:17;331.80;;;314.38;;
39554;SDS011;25231;48.746;9.234;2022-07-25T13:40:42;332.60;;;315.00;;
39554;SDS011;25231;48.746;9.234;2022-07-25T13:43:08;342.55;;;324.33;;
39554;SDS011;25231;48.746;9.234;2022-07-25T13:45:34;40.72;;;38.47;;
39554;SDS011;25231;48.746;9.234;2022-07-25T13:47:59;26.15;;;24.63;;
39554;SDS011;25231;48.746;9.234;2022-07-25T13:50:25;26.63;;;25.10;;
39554;SDS011;25231;48.746;9.234;2022-07-25T13:52:50;38.80;;;36.55;;
39554;SDS011;25231;48.746;9.234;2022-07-25T13:55:16;37.05;;;35.00;;
39554;SDS011;25231;48.746;9.234;2022-07-25T13:57:43;40.80;;;38.60;;
39554;SDS011;25231;48.746;9.234;2022-07-25T14:00:09;40.10;;;37.83;;
39554;SDS011;25231;48.746;9.234;2022-07-25T14:02:35;38.08;;;35.95;;
39554;SDS011;25231;48.746;9.234;2022-07-25T14:05:00;35.25;;;33.13;;
39554;SDS011;25231;48.746;9.234;2022-07-25T14:07:26;43.67;;;41.10;;
39554;SDS011;25231;48.746;9.234;2022-07-25T14:09:51;57.03;;;53.85;;